createdAt,value
2023-01-11T00:00:38.038Z,1.00
2023-01-11T00:01:39.923Z,1.00
2023-01-11T00:02:41.875Z,1.00
2023-01-11T00:03:45.124Z,1.00
2023-01-11T00:04:50.263Z,1.00
2023-01-11T00:05:58.489Z,1.00
2023-01-11T00:07:00.883Z,1.00
2023-01-11T00:08:04.829Z,1.00
2023-01-11T00:09:07.143Z,1.00
2023-01-11T00:10:11.183Z,1.00
2023-01-11T00:11:15.671Z,1.00
2023-01-11T00:12:18.720Z,1.00
2023-01-11T00:13:23.714Z,1.00
2023-01-11T00:14:25.547Z,1.00
2023-01-11T00:15:27.496Z,1.00
2023-01-11T00:16:29.524Z,1.00
2023-01-11T00:17:31.659Z,1.00
2023-01-11T00:18:33.601Z,1.00
2023-01-11T00:19:35.727Z,1.00
2023-01-11T00:20:42.468Z,1.00
2023-01-11T00:21:44.355Z,1.00
2023-01-11T00:22:46.287Z,1.00
2023-01-11T00:23:49.901Z,1.00
2023-01-11T00:24:53.122Z,1.00
2023-01-11T00:25:54.931Z,1.00
2023-01-11T00:26:57.023Z,1.00
2023-01-11T00:27:58.873Z,1.00
2023-01-11T00:29:00.848Z,1.00
2023-01-11T00:30:02.888Z,1.00
2023-01-11T00:31:05.075Z,1.00
2023-01-11T00:32:07.110Z,1.00
2023-01-11T00:33:14.332Z,1.00
2023-01-11T00:34:16.389Z,1.00
2023-01-11T00:35:18.415Z,1.00
2023-01-11T00:36:22.171Z,1.00
2023-01-11T00:37:27.058Z,1.00
2023-01-11T00:38:45.120Z,1.00
2023-01-11T00:39:47.219Z,1.00
2023-01-11T00:40:49.042Z,1.00
2023-01-11T00:42:10.269Z,1.00
2023-01-11T00:43:33.466Z,1.00
2023-01-11T00:44:56.637Z,1.00
2023-01-11T00:46:19.122Z,1.00
2023-01-11T00:47:40.974Z,1.00
2023-01-11T00:48:42.889Z,1.00
2023-01-11T00:49:44.937Z,1.00
2023-01-11T00:50:46.896Z,1.00
2023-01-11T00:51:51.919Z,1.00
2023-01-11T00:52:53.764Z,1.00
2023-01-11T00:53:55.521Z,1.00
2023-01-11T00:54:57.505Z,1.00
2023-01-11T00:55:59.938Z,1.00
2023-01-11T00:57:02.065Z,1.00
2023-01-11T00:58:04.313Z,1.00
2023-01-11T00:59:06.299Z,1.00
2023-01-11T01:00:09.934Z,1.00
2023-01-11T01:01:13.191Z,1.00
2023-01-11T01:02:15.374Z,1.00
2023-01-11T01:03:17.489Z,1.00
2023-01-11T01:04:19.397Z,1.00
2023-01-11T01:05:21.597Z,1.00
2023-01-11T01:06:23.761Z,1.00
2023-01-11T01:07:25.889Z,1.00
2023-01-11T01:08:28.019Z,1.00
2023-01-11T01:09:32.517Z,1.00
2023-01-11T01:10:34.710Z,1.00
2023-01-11T01:11:37.069Z,1.00
2023-01-11T01:12:58.746Z,1.00
2023-01-11T01:14:19.525Z,1.00
2023-01-11T01:15:23.336Z,1.00
2023-01-11T01:16:25.370Z,1.00
2023-01-11T01:17:27.855Z,1.00
2023-01-11T01:18:29.877Z,1.00
2023-01-11T01:19:35.523Z,1.00
2023-01-11T01:20:37.652Z,1.00
2023-01-11T01:21:39.892Z,1.00
2023-01-11T01:22:42.340Z,1.00
2023-01-11T01:23:46.257Z,1.00
2023-01-11T01:24:48.277Z,1.00
2023-01-11T01:25:50.097Z,1.00
2023-01-11T01:26:52.167Z,1.00
2023-01-11T01:27:57.915Z,1.00
2023-01-11T01:28:59.887Z,1.00
2023-01-11T01:30:01.687Z,1.00
2023-01-11T01:31:04.955Z,1.00
2023-01-11T01:32:07.197Z,1.00
2023-01-11T01:33:09.337Z,1.00
2023-01-11T01:34:12.607Z,1.00
2023-01-11T01:35:14.604Z,1.00
2023-01-11T01:36:16.629Z,1.00
2023-01-11T01:37:19.959Z,1.00
2023-01-11T01:38:21.898Z,1.00
2023-01-11T01:39:23.894Z,1.00
2023-01-11T01:40:25.703Z,1.00
2023-01-11T01:41:28.283Z,1.00
2023-01-11T01:42:30.499Z,1.00
2023-01-11T01:43:49.186Z,1.00
2023-01-11T01:45:07.310Z,1.00
2023-01-11T01:46:10.760Z,1.00
2023-01-11T01:47:15.163Z,1.00
2023-01-11T01:48:23.627Z,1.00
2023-01-11T01:49:26.746Z,1.00
2023-01-11T01:50:43.536Z,1.00
2023-01-11T01:51:55.384Z,1.00
2023-01-11T01:53:11.474Z,1.00
2023-01-11T01:54:23.130Z,1.00
2023-01-11T01:55:32.172Z,1.00
2023-01-11T01:56:39.804Z,1.00
2023-01-11T01:57:44.936Z,1.00
2023-01-11T01:58:59.223Z,1.00
2023-01-11T02:00:06.021Z,1.00
2023-01-11T02:01:33.185Z,1.00
2023-01-11T02:02:37.326Z,1.00
2023-01-11T02:03:43.748Z,1.00
2023-01-11T02:04:49.134Z,1.00
2023-01-11T02:05:52.246Z,1.00
2023-01-11T02:07:04.185Z,1.00
2023-01-11T02:08:16.811Z,1.00
2023-01-11T02:09:26.929Z,1.00
2023-01-11T02:10:29.230Z,1.00
2023-01-11T02:11:31.709Z,1.00
2023-01-11T02:12:58.980Z,1.00
2023-01-11T02:14:11.159Z,1.00
2023-01-11T02:15:15.336Z,1.00
2023-01-11T02:16:18.513Z,1.00
2023-01-11T02:17:21.817Z,1.00
2023-01-11T02:18:23.681Z,1.00
2023-01-11T02:19:56.191Z,1.00
2023-01-11T02:21:22.561Z,1.00
2023-01-11T02:22:33.606Z,1.00
2023-01-11T02:23:57.219Z,1.00
2023-01-11T02:25:32.730Z,1.00
2023-01-11T02:26:37.408Z,1.00
2023-01-11T02:27:58.005Z,1.00
2023-01-11T02:29:33.330Z,1.00
2023-01-11T02:30:54.991Z,1.00
2023-01-11T02:32:34.959Z,1.00
2023-01-11T02:34:13.021Z,1.00
2023-01-11T02:35:46.429Z,1.00
2023-01-11T02:37:14.223Z,1.00
2023-01-11T02:38:32.847Z,1.00
2023-01-11T02:39:59.287Z,1.00
2023-01-11T02:41:58.656Z,1.00
2023-01-11T02:43:30.963Z,1.00
2023-01-11T02:45:11.871Z,1.00
2023-01-11T02:46:32.207Z,1.00
2023-01-11T02:47:44.309Z,1.00
2023-01-11T02:49:00.219Z,1.00
2023-01-11T02:50:20.537Z,1.00
2023-01-11T02:51:31.922Z,1.00
2023-01-11T02:52:53.139Z,1.00
2023-01-11T02:54:04.819Z,1.00
2023-01-11T02:55:12.187Z,1.00
2023-01-11T02:56:28.334Z,1.00
2023-01-11T02:57:34.946Z,1.00
2023-01-11T02:58:42.207Z,1.00
2023-01-11T02:59:48.916Z,1.00
2023-01-11T03:00:52.009Z,1.00
2023-01-11T03:01:56.098Z,1.00
2023-01-11T03:03:20.198Z,1.00
2023-01-11T03:04:27.587Z,1.00
2023-01-11T03:05:29.457Z,1.00
2023-01-11T03:06:36.149Z,1.00
2023-01-11T03:08:00.087Z,1.00
2023-01-11T03:09:31.672Z,1.00
2023-01-11T03:10:45.670Z,1.00
2023-01-11T03:12:21.153Z,1.00
2023-01-11T03:13:39.442Z,1.00
2023-01-11T03:14:49.614Z,1.00
2023-01-11T03:15:55.868Z,1.00
2023-01-11T03:17:25.934Z,1.00
2023-01-11T03:18:46.135Z,1.00
2023-01-11T03:19:59.788Z,1.00
2023-01-11T03:21:38.069Z,1.00
2023-01-11T03:22:58.178Z,1.00
2023-01-11T03:24:38.969Z,1.00
2023-01-11T03:25:50.685Z,1.00
2023-01-11T03:27:37.769Z,1.00
2023-01-11T03:28:55.496Z,1.00
2023-01-11T03:30:13.645Z,1.00
2023-01-11T03:31:44.749Z,1.00
2023-01-11T03:32:49.030Z,1.00
2023-01-11T03:33:53.811Z,1.00
2023-01-11T03:35:04.638Z,1.00
2023-01-11T03:36:14.977Z,1.00
2023-01-11T03:37:44.504Z,1.00
2023-01-11T03:38:52.030Z,1.00
2023-01-11T03:40:07.173Z,1.00
2023-01-11T03:41:18.137Z,1.00
2023-01-11T03:42:25.436Z,1.00
2023-01-11T03:43:32.593Z,1.00
2023-01-11T03:44:46.776Z,1.00
2023-01-11T03:45:52.286Z,1.00
2023-01-11T03:47:59.885Z,1.00
2023-01-11T03:49:10.729Z,1.00
2023-01-11T03:50:13.747Z,1.00
2023-01-11T03:51:19.973Z,1.00
2023-01-11T03:52:27.757Z,1.00
2023-01-11T03:53:36.899Z,1.00
2023-01-11T03:54:41.090Z,1.00
2023-01-11T03:55:45.949Z,1.00
2023-01-11T03:57:08.676Z,1.00
2023-01-11T03:58:12.038Z,1.00
2023-01-11T03:59:14.080Z,1.00
2023-01-11T04:00:16.829Z,1.00
2023-01-11T04:01:18.767Z,1.00
2023-01-11T04:02:33.554Z,1.00
2023-01-11T04:03:35.559Z,1.00
2023-01-11T04:04:38.703Z,1.00
2023-01-11T04:05:45.744Z,1.00
2023-01-11T04:06:51.232Z,1.00
2023-01-11T04:07:54.118Z,1.00
2023-01-11T04:08:55.812Z,1.00
2023-01-11T04:09:58.813Z,1.00
2023-01-11T04:11:00.625Z,1.00
2023-01-11T04:12:02.623Z,1.00
2023-01-11T04:13:06.575Z,1.00
2023-01-11T04:14:08.401Z,1.00
2023-01-11T04:15:13.328Z,1.00
2023-01-11T04:16:15.150Z,1.00
2023-01-11T04:17:19.969Z,1.00
2023-01-11T04:18:22.023Z,1.00
2023-01-11T04:19:23.959Z,1.00
2023-01-11T04:20:25.626Z,1.00
2023-01-11T04:21:29.034Z,1.00
2023-01-11T04:22:31.334Z,1.00
2023-01-11T04:23:34.408Z,1.00
2023-01-11T04:24:38.229Z,1.00
2023-01-11T04:25:39.864Z,1.00
2023-01-11T04:26:41.585Z,1.00
2023-01-11T04:27:43.386Z,1.00
2023-01-11T04:28:46.565Z,1.00
2023-01-11T04:29:50.235Z,1.00
2023-01-11T04:30:54.030Z,1.00
2023-01-11T04:31:59.493Z,1.00
2023-01-11T04:33:01.699Z,1.00
2023-01-11T04:34:03.912Z,1.00
2023-01-11T04:35:06.079Z,1.00
2023-01-11T04:36:13.195Z,1.00
2023-01-11T04:37:15.706Z,1.00
2023-01-11T04:38:19.070Z,1.00
2023-01-11T04:39:20.968Z,1.00
2023-01-11T04:40:23.644Z,1.00
2023-01-11T04:41:44.231Z,1.00
2023-01-11T04:42:47.177Z,1.00
2023-01-11T04:43:49.238Z,1.00
2023-01-11T04:44:53.373Z,1.00
2023-01-11T04:45:59.300Z,1.00
2023-01-11T04:47:03.536Z,1.00
2023-01-11T04:48:05.633Z,1.00
2023-01-11T04:49:07.876Z,1.00
2023-01-11T04:50:11.802Z,1.00
2023-01-11T04:51:14.127Z,1.00
2023-01-11T04:52:18.384Z,1.00
2023-01-11T04:53:20.447Z,1.00
2023-01-11T04:54:22.755Z,1.00
2023-01-11T04:55:24.652Z,1.00
2023-01-11T04:56:26.591Z,1.00
2023-01-11T04:57:29.709Z,1.00
2023-01-11T04:58:32.245Z,1.00
2023-01-11T04:59:34.178Z,1.00
2023-01-11T05:00:35.953Z,1.00
2023-01-11T05:01:37.884Z,1.00
2023-01-11T05:02:40.267Z,1.00
2023-01-11T05:03:42.593Z,1.00
2023-01-11T05:04:44.642Z,1.00
2023-01-11T05:05:56.158Z,1.00
2023-01-11T05:06:58.214Z,1.00
2023-01-11T05:08:00.121Z,1.00
2023-01-11T05:09:01.935Z,1.00
2023-01-11T05:10:04.509Z,1.00
2023-01-11T05:11:07.976Z,1.00
2023-01-11T05:12:10.000Z,1.00
2023-01-11T05:13:11.730Z,1.00
2023-01-11T05:14:17.935Z,1.00
2023-01-11T05:15:19.977Z,1.00
2023-01-11T05:16:24.137Z,1.00
2023-01-11T05:17:26.373Z,1.00
2023-01-11T05:18:28.061Z,1.00
2023-01-11T05:19:29.727Z,1.00
2023-01-11T05:20:31.414Z,1.00
2023-01-11T05:21:41.507Z,1.00
2023-01-11T05:22:43.357Z,1.00
2023-01-11T05:23:46.238Z,1.00
2023-01-11T05:24:49.561Z,1.00
2023-01-11T05:25:52.818Z,1.00
2023-01-11T05:26:54.559Z,1.00
2023-01-11T05:27:56.310Z,1.00
2023-01-11T05:29:00.795Z,1.00
2023-01-11T05:30:02.506Z,1.00
2023-01-11T05:31:04.861Z,1.00
2023-01-11T05:32:06.668Z,1.00
2023-01-11T05:33:08.454Z,1.00
2023-01-11T05:34:13.359Z,1.00
2023-01-11T05:35:15.124Z,1.00
2023-01-11T05:36:19.341Z,1.00
2023-01-11T05:37:22.161Z,1.00
2023-01-11T05:38:24.001Z,1.00
2023-01-11T05:39:25.930Z,1.00
2023-01-11T05:40:27.586Z,1.00
2023-01-11T05:41:29.432Z,1.00
2023-01-11T05:42:31.136Z,1.00
2023-01-11T05:43:33.647Z,1.00
2023-01-11T05:44:55.813Z,1.00
2023-01-11T05:45:59.393Z,1.00
2023-01-11T05:47:01.297Z,1.00
2023-01-11T05:48:03.086Z,1.00
2023-01-11T05:49:05.625Z,1.00
2023-01-11T05:50:08.423Z,1.00
2023-01-11T05:51:10.370Z,1.00
2023-01-11T05:52:12.306Z,1.00
2023-01-11T05:53:14.046Z,1.00
2023-01-11T05:54:16.207Z,1.00
2023-01-11T05:55:18.776Z,1.00
2023-01-11T05:56:23.741Z,1.00
2023-01-11T05:57:25.692Z,1.00
2023-01-11T05:58:27.710Z,1.00
2023-01-11T05:59:32.042Z,1.00
2023-01-11T06:00:34.101Z,1.00
2023-01-11T06:01:36.467Z,1.00
2023-01-11T06:02:38.551Z,1.00
2023-01-11T06:03:40.808Z,1.00
2023-01-11T06:04:42.620Z,1.00
2023-01-11T06:05:46.174Z,1.00
2023-01-11T06:06:48.225Z,1.00
2023-01-11T06:07:50.180Z,1.00
2023-01-11T06:08:52.360Z,1.00
2023-01-11T06:09:54.056Z,1.00
2023-01-11T06:10:57.041Z,1.00
2023-01-11T06:11:58.920Z,1.00
2023-01-11T06:13:19.945Z,1.00
2023-01-11T06:14:21.783Z,1.00
2023-01-11T06:16:39.696Z,1.00
2023-01-11T06:17:41.606Z,1.00
2023-01-11T06:18:45.811Z,1.00
2023-01-11T06:19:47.957Z,1.00
2023-01-11T06:20:51.312Z,1.00
2023-01-11T06:21:53.195Z,1.00
2023-01-11T06:22:55.372Z,1.00
2023-01-11T06:23:57.503Z,1.00
2023-01-11T06:25:00.530Z,1.00
2023-01-11T06:26:03.939Z,1.00
2023-01-11T06:27:05.836Z,1.00
2023-01-11T06:28:07.774Z,1.00
2023-01-11T06:29:09.563Z,1.00
2023-01-11T06:30:17.407Z,1.00
2023-01-11T06:31:22.092Z,1.00
2023-01-11T06:32:23.935Z,1.00
2023-01-11T06:33:28.866Z,1.00
2023-01-11T06:34:30.932Z,1.00
2023-01-11T06:35:40.981Z,1.00
2023-01-11T06:36:42.870Z,1.00
2023-01-11T06:37:44.576Z,1.00
2023-01-11T06:38:46.462Z,1.00
2023-01-11T06:39:48.269Z,1.00
2023-01-11T06:40:58.265Z,1.00
2023-01-11T06:42:00.502Z,1.00
2023-01-11T06:43:02.365Z,1.00
2023-01-11T06:44:04.449Z,1.00
2023-01-11T06:45:07.001Z,1.00
2023-01-11T06:46:13.580Z,1.00
2023-01-11T06:47:15.361Z,1.00
2023-01-11T06:48:21.900Z,1.00
2023-01-11T06:49:23.724Z,1.00
2023-01-11T06:50:25.841Z,1.00
2023-01-11T06:51:27.887Z,1.00
2023-01-11T06:52:29.907Z,1.00
2023-01-11T06:53:32.628Z,1.00
2023-01-11T06:54:34.523Z,1.00
2023-01-11T06:55:36.260Z,1.00
2023-01-11T06:56:38.128Z,1.00
2023-01-11T06:57:40.175Z,1.00
2023-01-11T06:58:42.249Z,1.00
2023-01-11T06:59:44.355Z,1.00
2023-01-11T07:00:46.762Z,1.00
2023-01-11T07:01:48.795Z,1.00
2023-01-11T07:02:50.974Z,1.00
2023-01-11T07:03:52.698Z,1.00
2023-01-11T07:04:54.982Z,1.00
2023-01-11T07:05:57.943Z,1.00
2023-01-11T07:07:01.455Z,1.00
2023-01-11T07:08:08.142Z,1.00
2023-01-11T07:09:09.995Z,1.00
2023-01-11T07:10:15.536Z,1.00
2023-01-11T07:11:18.107Z,1.00
2023-01-11T07:12:20.402Z,1.00
2023-01-11T07:13:22.502Z,1.00
2023-01-11T07:14:27.662Z,1.00
2023-01-11T07:15:32.788Z,1.00
2023-01-11T07:16:34.894Z,1.00
2023-01-11T07:17:37.151Z,1.00
2023-01-11T07:18:42.284Z,1.00
2023-01-11T07:19:46.410Z,1.00
2023-01-11T07:20:51.890Z,1.00
2023-01-11T07:21:53.860Z,1.00
2023-01-11T07:23:01.007Z,1.00
2023-01-11T07:24:05.026Z,1.00
2023-01-11T07:25:07.949Z,1.00
2023-01-11T07:26:10.452Z,1.00
2023-01-11T07:27:14.051Z,1.00
2023-01-11T07:28:16.192Z,1.00
2023-01-11T07:29:18.085Z,1.00
2023-01-11T07:30:19.906Z,1.00
2023-01-11T07:31:22.043Z,1.00
2023-01-11T07:32:24.479Z,1.00
2023-01-11T07:33:26.902Z,1.00
2023-01-11T07:34:28.582Z,1.00
2023-01-11T07:35:31.157Z,1.00
2023-01-11T07:36:36.786Z,1.00
2023-01-11T07:37:41.787Z,1.00
2023-01-11T07:38:43.566Z,1.00
2023-01-11T07:39:47.434Z,1.00
2023-01-11T07:40:49.206Z,1.00
2023-01-11T07:42:10.235Z,1.00
2023-01-11T07:43:18.581Z,1.00
2023-01-11T07:44:20.564Z,1.00
2023-01-11T07:45:22.416Z,1.00
2023-01-11T07:46:25.014Z,1.00
2023-01-11T07:47:27.702Z,1.00
2023-01-11T07:48:31.179Z,1.00
2023-01-11T07:49:33.108Z,1.00
2023-01-11T07:50:34.987Z,1.00
2023-01-11T07:51:40.377Z,1.00
2023-01-11T07:52:48.825Z,1.00
2023-01-11T07:53:51.149Z,1.00
2023-01-11T07:54:53.072Z,1.00
2023-01-11T07:55:56.023Z,1.00
2023-01-11T07:56:57.767Z,1.00
2023-01-11T07:57:59.729Z,1.00
2023-01-11T07:59:01.761Z,1.00
2023-01-11T08:00:03.808Z,1.00
2023-01-11T08:01:05.756Z,1.00
2023-01-11T08:02:07.492Z,1.00
2023-01-11T08:03:09.786Z,1.00
2023-01-11T08:04:13.270Z,1.00
2023-01-11T08:05:15.168Z,1.00
2023-01-11T08:06:17.642Z,1.00
2023-01-11T08:07:19.431Z,1.00
2023-01-11T08:08:21.949Z,1.00
2023-01-11T08:09:23.957Z,1.00
2023-01-11T08:10:25.772Z,1.00
2023-01-11T08:11:46.375Z,1.00
2023-01-11T08:13:08.126Z,1.00
2023-01-11T08:14:29.636Z,1.00
2023-01-11T08:15:32.989Z,1.00
2023-01-11T08:16:35.045Z,1.00
2023-01-11T08:17:37.061Z,1.00
2023-01-11T08:18:39.129Z,1.00
2023-01-11T08:19:41.373Z,1.00
2023-01-11T08:20:43.235Z,1.00
2023-01-11T08:21:44.921Z,1.00
2023-01-11T08:22:48.557Z,1.00
2023-01-11T08:23:52.621Z,1.00
2023-01-11T08:24:56.707Z,1.00
2023-01-11T08:25:58.577Z,1.00
2023-01-11T08:27:00.950Z,1.00
2023-01-11T08:28:06.013Z,1.00
2023-01-11T08:29:07.887Z,1.00
2023-01-11T08:30:10.695Z,1.00
2023-01-11T08:31:12.729Z,1.00
2023-01-11T08:32:14.921Z,1.00
2023-01-11T08:33:17.026Z,1.00
2023-01-11T08:34:22.150Z,1.00
2023-01-11T08:35:34.648Z,1.00
2023-01-11T08:36:36.430Z,1.00
2023-01-11T08:37:38.466Z,1.00
2023-01-11T08:38:40.402Z,1.00
2023-01-11T08:39:43.255Z,1.00
2023-01-11T08:40:45.197Z,1.00
2023-01-11T08:41:47.079Z,1.00
2023-01-11T08:42:48.963Z,1.00
2023-01-11T08:43:50.992Z,1.00
2023-01-11T08:44:52.800Z,1.00
2023-01-11T08:45:55.216Z,1.00
2023-01-11T08:46:57.068Z,1.00
2023-01-11T08:47:59.980Z,1.00
2023-01-11T08:49:02.456Z,1.00
2023-01-11T08:50:05.858Z,1.00
2023-01-11T08:51:07.668Z,1.00
2023-01-11T08:52:14.209Z,1.00
2023-01-11T08:53:16.440Z,1.00
2023-01-11T08:54:18.303Z,1.00
2023-01-11T08:55:45.162Z,1.00
2023-01-11T08:56:48.559Z,1.00
2023-01-11T08:57:50.401Z,1.00
2023-01-11T08:58:52.423Z,1.00
2023-01-11T08:59:54.263Z,1.00
2023-01-11T09:01:02.843Z,1.00
2023-01-11T09:02:06.361Z,1.00
2023-01-11T09:03:08.696Z,1.00
2023-01-11T09:04:23.809Z,1.00
2023-01-11T09:05:26.852Z,1.00
2023-01-11T09:06:28.776Z,1.00
2023-01-11T09:07:30.662Z,1.00
2023-01-11T09:08:32.546Z,1.00
2023-01-11T09:09:34.307Z,1.00
2023-01-11T09:10:36.254Z,1.00
2023-01-11T09:11:56.690Z,1.00
2023-01-11T09:12:58.901Z,1.00
2023-01-11T09:14:00.610Z,1.00
2023-01-11T09:15:02.492Z,1.00
2023-01-11T09:16:04.419Z,1.00
2023-01-11T09:17:06.129Z,1.00
2023-01-11T09:18:08.673Z,1.00
2023-01-11T09:19:10.485Z,1.00
2023-01-11T09:20:12.532Z,1.00
2023-01-11T09:21:14.281Z,1.00
2023-01-11T09:22:16.502Z,1.00
2023-01-11T09:23:18.541Z,1.00
2023-01-11T09:24:20.598Z,1.00
2023-01-11T09:25:23.574Z,1.00
2023-01-11T09:26:25.588Z,1.00
2023-01-11T09:27:29.580Z,1.00
2023-01-11T09:28:31.267Z,1.00
2023-01-11T09:29:35.009Z,1.00
2023-01-11T09:30:39.285Z,1.00
2023-01-11T09:31:41.377Z,1.00
2023-01-11T09:32:43.666Z,1.00
2023-01-11T09:33:45.598Z,1.00
2023-01-11T09:34:49.640Z,1.00
2023-01-11T09:35:52.372Z,1.00
2023-01-11T09:36:56.264Z,1.00
2023-01-11T09:37:59.466Z,1.00
2023-01-11T09:39:04.633Z,1.00
2023-01-11T09:40:12.467Z,1.00
2023-01-11T09:41:34.357Z,1.00
2023-01-11T09:42:39.763Z,1.00
2023-01-11T09:43:51.247Z,1.00
2023-01-11T09:45:17.687Z,1.00
2023-01-11T09:46:20.067Z,1.00
2023-01-11T09:47:42.727Z,1.00
2023-01-11T09:48:51.918Z,1.00
2023-01-11T09:49:58.245Z,1.00
2023-01-11T09:51:01.640Z,1.00
2023-01-11T09:52:18.844Z,1.00
2023-01-11T09:53:27.263Z,1.00
2023-01-11T09:54:29.133Z,1.00
2023-01-11T09:55:39.539Z,1.00
2023-01-11T09:56:51.191Z,1.00
2023-01-11T09:58:03.102Z,1.00
2023-01-11T09:59:19.150Z,1.00
2023-01-11T10:00:42.214Z,1.00
2023-01-11T10:02:19.760Z,1.00
2023-01-11T10:03:47.694Z,1.00
2023-01-11T10:04:56.078Z,1.00
2023-01-11T10:06:42.556Z,1.00
2023-01-11T10:18:22.583Z,1.00
2023-01-11T10:18:28.617Z,1.00
2023-01-11T10:18:28.856Z,1.00
2023-01-11T10:19:31.615Z,1.00
2023-01-11T10:20:35.525Z,1.00
2023-01-11T10:21:50.586Z,1.00
2023-01-11T10:23:00.639Z,1.00
2023-01-11T10:24:08.668Z,1.00
2023-01-11T10:25:18.834Z,1.00
2023-01-11T10:26:39.759Z,1.00
2023-01-11T10:27:58.930Z,1.00
2023-01-11T10:29:29.795Z,1.00
2023-01-11T10:30:58.512Z,1.00
2023-01-11T10:32:33.837Z,1.00
2023-01-11T10:33:50.680Z,1.00
2023-01-11T10:35:08.042Z,1.00
2023-01-11T10:36:57.151Z,1.00
2023-01-11T10:38:33.322Z,1.00
2023-01-11T10:40:24.613Z,1.00
2023-01-11T10:41:42.917Z,1.00
2023-01-11T10:42:57.065Z,1.00
2023-01-11T10:44:19.120Z,1.00
2023-01-11T10:45:43.625Z,1.00
2023-01-11T10:46:51.148Z,1.00
2023-01-11T10:47:59.597Z,1.00
2023-01-11T10:49:26.999Z,1.00
2023-01-11T10:50:43.968Z,1.00
2023-01-11T10:51:47.500Z,1.00
2023-01-11T10:52:55.900Z,1.00
2023-01-11T10:54:16.894Z,1.00
2023-01-11T10:55:36.381Z,1.00
2023-01-11T10:57:04.753Z,1.00
2023-01-11T10:58:12.851Z,1.00
2023-01-11T10:59:21.700Z,1.00
2023-01-11T11:00:36.769Z,1.00
2023-01-11T11:02:15.007Z,1.00
2023-01-11T11:03:26.037Z,1.00
2023-01-11T11:04:57.781Z,1.00
2023-01-11T11:06:27.523Z,1.00
2023-01-11T11:07:56.432Z,1.00
2023-01-11T11:09:16.975Z,1.00
2023-01-11T11:10:30.729Z,1.00
2023-01-11T11:11:47.298Z,1.00
2023-01-11T11:13:01.444Z,1.00
2023-01-11T11:14:06.644Z,1.00
2023-01-11T11:15:11.346Z,1.00
2023-01-11T11:16:34.150Z,1.00
2023-01-11T11:17:38.568Z,1.00
2023-01-11T11:18:41.970Z,1.00
2023-01-11T11:19:44.053Z,1.00
2023-01-11T11:20:46.823Z,1.00
2023-01-11T11:21:49.629Z,1.00
2023-01-11T11:22:53.216Z,1.00
2023-01-11T11:23:59.430Z,1.00
2023-01-11T11:25:05.890Z,1.00
2023-01-11T11:26:09.085Z,1.00
2023-01-11T11:27:32.337Z,1.00
2023-01-11T11:28:34.622Z,1.00
2023-01-11T11:29:42.891Z,1.00
2023-01-11T11:30:47.469Z,1.00
2023-01-11T11:31:50.968Z,1.00
2023-01-11T11:33:03.760Z,1.00
2023-01-11T11:34:15.219Z,1.00
2023-01-11T11:35:31.161Z,1.00
2023-01-11T11:36:44.755Z,1.00
2023-01-11T11:37:46.549Z,1.00
2023-01-11T11:39:21.169Z,1.00
2023-01-11T11:40:33.684Z,1.00
2023-01-11T11:41:58.949Z,1.00
2023-01-11T11:43:18.785Z,1.00
2023-01-11T11:44:24.727Z,1.00
2023-01-11T11:45:27.712Z,1.00
2023-01-11T11:46:30.536Z,1.00
2023-01-11T11:47:32.290Z,1.00
2023-01-11T11:48:35.428Z,1.00
2023-01-11T11:49:41.122Z,1.00
2023-01-11T11:50:45.123Z,1.00
2023-01-11T11:51:48.237Z,1.00
2023-01-11T11:52:53.184Z,1.00
2023-01-11T11:53:56.483Z,1.00
2023-01-11T11:55:27.016Z,1.00
2023-01-11T11:56:33.639Z,1.00
2023-01-11T11:57:42.485Z,1.00
2023-01-11T11:58:45.295Z,1.00
2023-01-11T11:59:49.911Z,1.00
2023-01-11T12:00:54.545Z,1.00
2023-01-11T12:02:00.966Z,1.00
2023-01-11T12:03:30.275Z,1.00
2023-01-11T12:04:44.541Z,1.00
2023-01-11T12:06:03.856Z,1.00
2023-01-11T12:07:16.389Z,1.00
2023-01-11T12:08:19.170Z,1.00
2023-01-11T12:09:32.593Z,1.00
2023-01-11T12:10:34.365Z,1.20
2023-01-11T12:11:40.951Z,1.10
2023-01-11T12:13:03.517Z,1.30
2023-01-11T12:14:11.129Z,1.80
2023-01-11T12:15:15.651Z,1.90
2023-01-11T12:16:23.020Z,2.00
2023-01-11T12:17:25.963Z,2.00
2023-01-11T12:18:33.612Z,1.80
2023-01-11T12:19:41.871Z,1.80
2023-01-11T12:20:44.755Z,2.10
2023-01-11T12:21:46.544Z,2.10
2023-01-11T12:23:07.971Z,2.10
2023-01-11T12:24:19.573Z,2.30
2023-01-11T12:25:25.257Z,2.30
2023-01-11T12:26:36.918Z,2.80
2023-01-11T12:28:02.087Z,3.00
2023-01-11T12:29:33.152Z,3.20
2023-01-11T12:30:46.557Z,3.30
2023-01-11T12:32:13.275Z,3.30
2023-01-11T12:33:32.444Z,3.30
2023-01-11T12:34:37.055Z,3.30
2023-01-11T12:35:50.265Z,3.30
2023-01-11T12:37:04.775Z,3.30
2023-01-11T12:38:17.994Z,3.30
2023-01-11T12:39:35.230Z,3.30
2023-01-11T12:40:45.963Z,3.30
2023-01-11T12:42:05.426Z,3.30
2023-01-11T12:43:31.081Z,3.30
2023-01-11T12:44:52.045Z,3.50
2023-01-11T12:46:15.276Z,3.30
2023-01-11T12:47:48.083Z,3.30
2023-01-11T12:49:04.932Z,3.90
2023-01-11T12:50:28.367Z,3.90
2023-01-11T12:52:05.539Z,4.00
2023-01-11T12:53:31.061Z,4.10
2023-01-11T12:55:02.220Z,4.60
2023-01-11T12:56:25.669Z,4.80
2023-01-11T12:58:08.908Z,5.10
2023-01-11T12:59:30.136Z,5.30
2023-01-11T13:00:53.238Z,6.00
2023-01-11T13:02:24.460Z,6.50
2023-01-11T13:03:50.900Z,6.20
2023-01-11T13:05:13.301Z,7.00
2023-01-11T13:06:24.910Z,7.00
2023-01-11T13:08:04.830Z,7.50
2023-01-11T13:09:09.897Z,7.70
2023-01-11T13:10:28.093Z,8.00
2023-01-11T13:12:03.846Z,7.90
2023-01-11T13:13:24.538Z,8.40
2023-01-11T13:14:47.603Z,8.60
2023-01-11T13:16:17.918Z,8.60
2023-01-11T13:17:51.458Z,9.10
2023-01-11T13:19:05.378Z,9.40
2023-01-11T13:21:00.566Z,9.30
2023-01-11T13:22:10.989Z,9.60
2023-01-11T13:23:24.553Z,9.80
2023-01-11T13:24:31.437Z,9.60
2023-01-11T13:25:36.709Z,9.70
2023-01-11T13:26:42.727Z,9.60
2023-01-11T13:27:46.499Z,9.70
2023-01-11T13:29:01.134Z,9.70
2023-01-11T13:30:03.610Z,9.70
2023-01-11T13:31:09.878Z,9.50
2023-01-11T13:32:18.594Z,9.40
2023-01-11T13:33:22.882Z,9.30
2023-01-11T13:34:50.017Z,9.00
2023-01-11T13:36:18.496Z,9.00
2023-01-11T13:37:30.137Z,9.10
2023-01-11T13:38:43.519Z,9.00
2023-01-11T13:40:03.911Z,8.80
2023-01-11T13:41:28.582Z,8.90
2023-01-11T13:42:36.165Z,8.90
2023-01-11T13:43:48.302Z,9.00
2023-01-11T13:45:06.913Z,9.40
2023-01-11T13:46:22.236Z,9.30
2023-01-11T13:47:38.223Z,9.20
2023-01-11T13:48:50.693Z,9.50
2023-01-11T13:50:13.458Z,10.10
2023-01-11T13:51:18.008Z,9.90
2023-01-11T13:52:48.675Z,10.00
2023-01-11T13:53:58.249Z,11.00
2023-01-11T13:55:26.766Z,10.20
2023-01-11T13:56:37.710Z,10.40
2023-01-11T13:58:00.864Z,10.30
2023-01-11T13:59:10.891Z,10.30
2023-01-11T14:00:24.957Z,10.60
2023-01-11T14:01:46.407Z,10.40
2023-01-11T14:03:07.557Z,10.70
2023-01-11T14:04:21.564Z,10.90
2023-01-11T14:05:23.877Z,11.10
2023-01-11T14:06:42.592Z,11.00
2023-01-11T14:08:22.702Z,11.00
2023-01-11T14:09:43.208Z,11.00
2023-01-11T14:11:07.650Z,11.00
2023-01-11T14:12:31.407Z,11.60
2023-01-11T14:14:18.275Z,12.10
2023-01-11T14:15:35.013Z,11.80
2023-01-11T14:16:43.977Z,12.20
2023-01-11T14:18:09.537Z,12.10
2023-01-11T14:19:25.254Z,12.60
2023-01-11T14:20:36.692Z,12.50
2023-01-11T14:21:54.259Z,12.60
2023-01-11T14:23:12.529Z,12.90
2023-01-11T14:24:17.254Z,12.90
2023-01-11T14:25:38.413Z,13.10
2023-01-11T14:27:05.264Z,13.10
2023-01-11T14:28:22.628Z,13.50
2023-01-11T14:30:19.862Z,13.30
2023-01-11T14:31:49.446Z,13.90
2023-01-11T14:33:33.611Z,11.20
2023-01-11T14:34:43.894Z,10.80
2023-01-11T14:36:22.900Z,10.60
2023-01-11T14:37:53.061Z,11.20
2023-01-11T14:39:05.494Z,11.30
2023-01-11T14:40:31.299Z,11.50
2023-01-11T14:41:57.571Z,11.70
2023-01-11T14:43:20.777Z,11.90
2023-01-11T14:44:50.063Z,12.30
2023-01-11T14:46:34.160Z,12.30
2023-01-11T14:47:58.805Z,12.20
2023-01-11T14:49:06.587Z,12.50
2023-01-11T14:50:34.956Z,12.50
2023-01-11T14:52:07.298Z,8.70
2023-01-11T14:53:12.733Z,9.00
2023-01-11T14:54:21.403Z,10.10
2023-01-11T14:55:49.381Z,8.30
2023-01-11T14:56:58.883Z,8.10
2023-01-11T14:58:21.553Z,6.80
2023-01-11T14:59:31.743Z,7.10
2023-01-11T15:00:34.284Z,6.70
2023-01-11T15:02:27.571Z,6.60
2023-01-11T15:03:48.447Z,6.30
2023-01-11T15:04:55.994Z,5.50
2023-01-11T15:06:21.680Z,5.20
2023-01-11T15:07:29.175Z,5.50
2023-01-11T15:08:43.013Z,4.80
2023-01-11T15:09:47.839Z,4.30
2023-01-11T15:10:52.438Z,5.40
2023-01-11T15:11:54.718Z,5.40
2023-01-11T15:12:58.247Z,4.90
2023-01-11T15:14:23.251Z,5.00
2023-01-11T15:15:47.312Z,4.70
2023-01-11T15:17:13.324Z,4.20
2023-01-11T15:18:22.671Z,4.30
2023-01-11T15:19:25.444Z,4.20
2023-01-11T15:20:29.095Z,4.70
2023-01-11T15:21:30.891Z,4.50
2023-01-11T15:22:34.535Z,4.40
2023-01-11T15:23:45.351Z,4.40
2023-01-11T15:24:59.867Z,4.50
2023-01-11T15:26:06.231Z,3.60
2023-01-11T15:27:23.933Z,3.10
2023-01-11T15:28:50.572Z,3.60
2023-01-11T15:29:56.086Z,2.90
2023-01-11T15:30:57.924Z,2.60
2023-01-11T15:32:02.535Z,3.20
2023-01-11T15:33:19.753Z,2.60
2023-01-11T15:34:27.903Z,2.60